sensor_id;sensor_type;location;lat;lon;timestamp;pressure;altitude;pressure_sealevel;temperature;humidity
56600;BME280;51832;48.152;11.530;2023-08-30T00:04:57;94891.34;;;14.24;100.00
56600;BME280;51832;48.152;11.530;2023-08-30T00:09:58;94889.50;;;14.24;100.00
56600;BME280;51832;48.152;11.530;2023-08-30T00:14:59;94893.47;;;14.27;100.00
56600;BME280;51832;48.152;11.530;2023-08-30T00:19:59;94888.84;;;14.44;100.00
56600;BME280;51832;48.152;11.530;2023-08-30T00:25:00;94895.75;;;14.08;100.00
56600;BME280;51832;48.152;11.530;2023-08-30T00:30:00;94893.31;;;14.44;100.00
56600;BME280;51832;48.152;11.530;2023-08-30T00:35:01;94889.78;;;14.28;100.00
56600;BME280;51832;48.152;11.530;2023-08-30T00:40:02;94889.38;;;14.46;100.00
56600;BME280;51832;48.152;11.530;2023-08-30T00:45:04;94891.41;;;14.39;100.00
56600;BME280;51832;48.152;11.530;2023-08-30T00:50:05;94885.78;;;14.20;100.00
56600;BME280;51832;48.152;11.530;2023-08-30T00:55:06;94887.59;;;14.15;100.00
56600;BME280;51832;48.152;11.530;2023-08-30T01:00:08;94882.03;;;14.11;100.00
56600;BME280;51832;48.152;11.530;2023-08-30T01:05:09;94880.19;;;14.12;100.00
56600;BME280;51832;48.152;11.530;2023-08-30T01:10:10;94892.53;;;13.96;100.00
56600;BME280;51832;48.152;11.530;2023-08-30T01:15:15;94888.41;;;14.15;100.00
56600;BME280;51832;48.152;11.530;2023-08-30T01:20:19;94898.16;;;14.05;100.00
56600;BME280;51832;48.152;11.530;2023-08-30T01:25:43;94886.47;;;14.01;100.00
56600;BME280;51832;48.152;11.530;2023-08-30T01:30:47;94889.63;;;13.98;100.00
56600;BME280;51832;48.152;11.530;2023-08-30T01:35:48;94880.34;;;13.90;100.00
56600;BME280;51832;48.152;11.530;2023-08-30T01:40:49;94872.19;;;14.02;100.00
56600;BME280;51832;48.152;11.530;2023-08-30T01:45:51;94888.03;;;13.97;100.00
56600;BME280;51832;48.152;11.530;2023-08-30T01:50:53;94892.88;;;14.10;100.00
56600;BME280;51832;48.152;11.530;2023-08-30T01:55:54;94875.19;;;14.15;100.00
56600;BME280;51832;48.152;11.530;2023-08-30T02:00:55;94880.97;;;14.12;100.00
56600;BME280;51832;48.152;11.530;2023-08-30T02:06:18;94878.28;;;14.02;100.00
56600;BME280;51832;48.152;11.530;2023-08-30T02:11:27;94883.78;;;13.96;100.00
56600;BME280;51832;48.152;11.530;2023-08-30T02:16:28;94880.09;;;13.92;100.00
56600;BME280;51832;48.152;11.530;2023-08-30T02:21:29;94873.53;;;14.09;100.00
56600;BME280;51832;48.152;11.530;2023-08-30T02:26:30;94875.09;;;14.00;100.00
56600;BME280;51832;48.152;11.530;2023-08-30T02:31:30;94871.69;;;14.05;100.00
56600;BME280;51832;48.152;11.530;2023-08-30T02:36:31;94868.06;;;14.26;100.00
56600;BME280;51832;48.152;11.530;2023-08-30T02:41:31;94869.59;;;14.07;100.00
56600;BME280;51832;48.152;11.530;2023-08-30T02:46:32;94877.56;;;14.22;100.00
56600;BME280;51832;48.152;11.530;2023-08-30T02:51:32;94883.56;;;14.02;100.00
56600;BME280;51832;48.152;11.530;2023-08-30T02:56:32;94884.66;;;14.06;100.00
56600;BME280;51832;48.152;11.530;2023-08-30T03:01:33;94880.88;;;13.92;100.00
56600;BME280;51832;48.152;11.530;2023-08-30T03:06:34;94869.84;;;14.10;100.00
56600;BME280;51832;48.152;11.530;2023-08-30T03:11:35;94880.63;;;13.99;100.00
56600;BME280;51832;48.152;11.530;2023-08-30T03:16:35;94878.25;;;13.92;100.00
56600;BME280;51832;48.152;11.530;2023-08-30T03:21:35;94882.03;;;14.06;100.00
56600;BME280;51832;48.152;11.530;2023-08-30T03:26:36;94871.94;;;14.08;100.00
56600;BME280;51832;48.152;11.530;2023-08-30T03:31:36;94864.31;;;14.07;100.00
56600;BME280;51832;48.152;11.530;2023-08-30T03:36:37;94859.56;;;14.14;100.00
56600;BME280;51832;48.152;11.530;2023-08-30T03:41:38;94867.41;;;13.99;100.00
56600;BME280;51832;48.152;11.530;2023-08-30T03:46:38;94875.63;;;14.02;100.00
56600;BME280;51832;48.152;11.530;2023-08-30T03:51:39;94868.06;;;14.21;100.00
56600;BME280;51832;48.152;11.530;2023-08-30T03:56:39;94875.47;;;14.24;100.00
56600;BME280;51832;48.152;11.530;2023-08-30T04:01:39;94876.53;;;15.11;100.00
56600;BME280;51832;48.152;11.530;2023-08-30T04:06:40;94866.75;;;15.77;100.00
56600;BME280;51832;48.152;11.530;2023-08-30T04:11:40;94881.09;;;15.71;100.00
56600;BME280;51832;48.152;11.530;2023-08-30T04:16:42;94874.03;;;16.31;100.00
56600;BME280;51832;48.152;11.530;2023-08-30T04:21:42;94876.56;;;15.36;100.00
56600;BME280;51832;48.152;11.530;2023-08-30T04:26:43;94879.13;;;14.80;100.00
56600;BME280;51832;48.152;11.530;2023-08-30T04:31:43;94876.75;;;14.74;100.00
56600;BME280;51832;48.152;11.530;2023-08-30T04:36:44;94874.06;;;14.69;100.00
56600;BME280;51832;48.152;11.530;2023-08-30T04:41:44;94869.28;;;14.66;100.00
56600;BME280;51832;48.152;11.530;2023-08-30T04:46:45;94874.06;;;14.58;100.00
56600;BME280;51832;48.152;11.530;2023-08-30T04:51:45;94877.53;;;14.74;100.00
56600;BME280;51832;48.152;11.530;2023-08-30T04:56:45;94883.59;;;14.65;100.00
56600;BME280;51832;48.152;11.530;2023-08-30T05:01:46;94880.28;;;14.37;100.00
56600;BME280;51832;48.152;11.530;2023-08-30T05:06:46;94879.22;;;14.38;100.00
56600;BME280;51832;48.152;11.530;2023-08-30T05:11:47;94880.81;;;14.34;100.00
56600;BME280;51832;48.152;11.530;2023-08-30T05:16:49;94877.63;;;14.32;100.00
56600;BME280;51832;48.152;11.530;2023-08-30T05:21:50;94875.50;;;14.29;100.00
56600;BME280;51832;48.152;11.530;2023-08-30T05:26:54;94885.03;;;14.30;100.00
56600;BME280;51832;48.152;11.530;2023-08-30T05:31:55;94890.63;;;14.39;100.00
56600;BME280;51832;48.152;11.530;2023-08-30T05:36:55;94897.28;;;14.41;100.00
56600;BME280;51832;48.152;11.530;2023-08-30T05:41:56;94885.66;;;14.52;100.00
56600;BME280;51832;48.152;11.530;2023-08-30T05:46:56;94885.69;;;14.63;100.00
56600;BME280;51832;48.152;11.530;2023-08-30T05:51:57;94884.38;;;14.55;100.00
56600;BME280;51832;48.152;11.530;2023-08-30T05:56:57;94886.47;;;14.53;100.00
56600;BME280;51832;48.152;11.530;2023-08-30T06:01:57;94890.44;;;14.50;100.00
56600;BME280;51832;48.152;11.530;2023-08-30T06:06:58;94895.47;;;14.47;100.00
56600;BME280;51832;48.152;11.530;2023-08-30T06:11:58;94889.94;;;14.58;100.00
56600;BME280;51832;48.152;11.530;2023-08-30T06:16:59;94892.56;;;14.48;100.00
56600;BME280;51832;48.152;11.530;2023-08-30T06:21:59;94896.56;;;14.61;100.00
56600;BME280;51832;48.152;11.530;2023-08-30T06:26:59;94909.00;;;14.55;100.00
56600;BME280;51832;48.152;11.530;2023-08-30T06:32:00;94906.31;;;14.50;100.00
56600;BME280;51832;48.152;11.530;2023-08-30T06:37:00;94899.41;;;14.49;100.00
56600;BME280;51832;48.152;11.530;2023-08-30T06:42:01;94894.56;;;14.31;100.00
56600;BME280;51832;48.152;11.530;2023-08-30T06:47:02;94897.03;;;14.43;100.00
56600;BME280;51832;48.152;11.530;2023-08-30T06:52:02;94901.28;;;14.44;100.00
56600;BME280;51832;48.152;11.530;2023-08-30T06:57:05;94898.63;;;14.44;100.00
56600;BME280;51832;48.152;11.530;2023-08-30T07:02:07;94905.00;;;14.53;100.00
56600;BME280;51832;48.152;11.530;2023-08-30T07:07:07;94904.34;;;14.88;100.00
56600;BME280;51832;48.152;11.530;2023-08-30T07:12:07;94902.53;;;15.14;100.00
56600;BME280;51832;48.152;11.530;2023-08-30T07:17:08;94887.38;;;14.89;100.00
56600;BME280;51832;48.152;11.530;2023-08-30T07:22:08;94893.72;;;14.83;100.00
56600;BME280;51832;48.152;11.530;2023-08-30T07:27:09;94904.06;;;14.89;100.00
56600;BME280;51832;48.152;11.530;2023-08-30T07:32:09;94894.84;;;15.12;100.00
56600;BME280;51832;48.152;11.530;2023-08-30T07:37:21;94897.19;;;15.04;100.00
56600;BME280;51832;48.152;11.530;2023-08-30T07:42:22;94897.16;;;14.93;100.00
56600;BME280;51832;48.152;11.530;2023-08-30T07:47:22;94902.25;;;15.36;100.00
56600;BME280;51832;48.152;11.530;2023-08-30T07:52:22;94910.78;;;15.73;100.00
56600;BME280;51832;48.152;11.530;2023-08-30T07:57:23;94914.75;;;15.66;100.00
56600;BME280;51832;48.152;11.530;2023-08-30T08:02:23;94914.47;;;15.42;100.00
56600;BME280;51832;48.152;11.530;2023-08-30T08:07:24;94920.56;;;15.42;100.00
56600;BME280;51832;48.152;11.530;2023-08-30T08:12:25;94920.28;;;15.49;100.00
56600;BME280;51832;48.152;11.530;2023-08-30T08:17:26;94923.53;;;15.56;100.00
56600;BME280;51832;48.152;11.530;2023-08-30T08:22:26;94925.38;;;15.55;100.00
56600;BME280;51832;48.152;11.530;2023-08-30T08:27:27;94919.53;;;15.84;100.00
56600;BME280;51832;48.152;11.530;2023-08-30T08:32:27;94920.03;;;16.06;100.00
56600;BME280;51832;48.152;11.530;2023-08-30T08:37:28;94918.03;;;16.52;100.00
56600;BME280;51832;48.152;11.530;2023-08-30T08:42:28;94918.56;;;16.64;100.00
56600;BME280;51832;48.152;11.530;2023-08-30T08:47:32;94916.56;;;16.90;100.00
56600;BME280;51832;48.152;11.530;2023-08-30T08:52:33;94911.31;;;17.24;100.00
56600;BME280;51832;48.152;11.530;2023-08-30T08:57:34;94908.25;;;17.02;99.94
56600;BME280;51832;48.152;11.530;2023-08-30T09:02:34;94910.78;;;17.22;98.23
56600;BME280;51832;48.152;11.530;2023-08-30T09:07:35;94910.09;;;17.46;98.85
56600;BME280;51832;48.152;11.530;2023-08-30T09:12:36;94901.41;;;17.74;97.29
56600;BME280;51832;48.152;11.530;2023-08-30T09:17:38;94892.16;;;18.19;94.11
56600;BME280;51832;48.152;11.530;2023-08-30T09:22:42;94896.69;;;18.19;91.86
56600;BME280;51832;48.152;11.530;2023-08-30T09:27:43;94893.72;;;18.25;89.95
56600;BME280;51832;48.152;11.530;2023-08-30T09:32:43;94888.00;;;17.84;92.22
56600;BME280;51832;48.152;11.530;2023-08-30T09:37:45;94889.53;;;18.67;90.09
56600;BME280;51832;48.152;11.530;2023-08-30T09:42:46;94887.53;;;18.96;87.15
56600;BME280;51832;48.152;11.530;2023-08-30T09:47:50;94880.78;;;18.85;87.56
56600;BME280;51832;48.152;11.530;2023-08-30T09:52:51;94886.81;;;18.72;87.02
56600;BME280;51832;48.152;11.530;2023-08-30T09:57:53;94869.16;;;18.52;84.80
56600;BME280;51832;48.152;11.530;2023-08-30T10:02:54;94876.56;;;18.31;86.71
56600;BME280;51832;48.152;11.530;2023-08-30T10:07:55;94869.00;;;18.67;84.40
56600;BME280;51832;48.152;11.530;2023-08-30T10:12:56;94857.91;;;18.79;85.12
56600;BME280;51832;48.152;11.530;2023-08-30T10:17:58;94846.88;;;18.67;83.54
56600;BME280;51832;48.152;11.530;2023-08-30T10:22:58;94844.38;;;18.75;83.04
56600;BME280;51832;48.152;11.530;2023-08-30T10:28:01;94842.41;;;19.00;81.94
56600;BME280;51832;48.152;11.530;2023-08-30T10:33:02;94843.59;;;18.51;84.75
56600;BME280;51832;48.152;11.530;2023-08-30T10:38:03;94844.63;;;18.55;84.24
56600;BME280;51832;48.152;11.530;2023-08-30T10:43:04;94850.69;;;18.61;83.44
56600;BME280;51832;48.152;11.530;2023-08-30T10:48:05;94847.31;;;19.30;79.25
56600;BME280;51832;48.152;11.530;2023-08-30T10:53:13;94845.75;;;19.62;79.18
56600;BME280;51832;48.152;11.530;2023-08-30T10:58:13;94832.13;;;19.63;75.42
56600;BME280;51832;48.152;11.530;2023-08-30T11:03:14;94832.25;;;19.85;70.36
56600;BME280;51832;48.152;11.530;2023-08-30T11:08:15;94830.97;;;19.97;68.76
56600;BME280;51832;48.152;11.530;2023-08-30T11:13:16;94832.81;;;20.42;68.26
56600;BME280;51832;48.152;11.530;2023-08-30T11:18:19;94824.63;;;21.11;68.80
56600;BME280;51832;48.152;11.530;2023-08-30T11:23:19;94825.47;;;20.62;66.87
56600;BME280;51832;48.152;11.530;2023-08-30T11:28:23;94820.31;;;21.37;64.93
56600;BME280;51832;48.152;11.530;2023-08-30T11:33:24;94818.09;;;21.61;65.08
56600;BME280;51832;48.152;11.530;2023-08-30T11:38:26;94818.53;;;21.55;66.30
56600;BME280;51832;48.152;11.530;2023-08-30T11:43:26;94817.06;;;21.49;65.09
56600;BME280;51832;48.152;11.530;2023-08-30T11:48:28;94807.75;;;21.46;66.23
56600;BME280;51832;48.152;11.530;2023-08-30T11:53:30;94804.34;;;20.74;70.19
56600;BME280;51832;48.152;11.530;2023-08-30T11:58:34;94812.69;;;20.72;70.62
56600;BME280;51832;48.152;11.530;2023-08-30T12:03:35;94802.44;;;20.88;69.04
56600;BME280;51832;48.152;11.530;2023-08-30T12:08:36;94811.72;;;20.54;70.27
56600;BME280;51832;48.152;11.530;2023-08-30T12:13:36;94811.50;;;20.10;74.64
56600;BME280;51832;48.152;11.530;2023-08-30T12:18:37;94810.41;;;20.11;72.90
56600;BME280;51832;48.152;11.530;2023-08-30T12:23:37;94799.81;;;19.78;73.80
56600;BME280;51832;48.152;11.530;2023-08-30T12:28:41;94799.72;;;20.11;72.37
56600;BME280;51832;48.152;11.530;2023-08-30T12:33:44;94794.38;;;20.24;70.78
56600;BME280;51832;48.152;11.530;2023-08-30T12:38:44;94792.19;;;20.68;68.40
56600;BME280;51832;48.152;11.530;2023-08-30T12:43:45;94804.19;;;21.51;64.60
56600;BME280;51832;48.152;11.530;2023-08-30T12:48:45;94797.41;;;22.55;58.29
56600;BME280;51832;48.152;11.530;2023-08-30T12:53:45;94786.63;;;22.38;59.55
56600;BME280;51832;48.152;11.530;2023-08-30T12:58:46;94780.38;;;22.68;58.20
56600;BME280;51832;48.152;11.530;2023-08-30T13:03:46;94775.56;;;22.30;56.13
56600;BME280;51832;48.152;11.530;2023-08-30T13:08:47;94785.88;;;22.06;57.84
56600;BME280;51832;48.152;11.530;2023-08-30T13:13:47;94786.19;;;21.20;56.34
56600;BME280;51832;48.152;11.530;2023-08-30T13:18:47;94783.84;;;21.50;57.47
56600;BME280;51832;48.152;11.530;2023-08-30T13:23:48;94778.63;;;21.00;67.88
56600;BME280;51832;48.152;11.530;2023-08-30T13:28:48;94786.53;;;20.69;71.12
56600;BME280;51832;48.152;11.530;2023-08-30T13:33:49;94778.28;;;20.79;71.61
56600;BME280;51832;48.152;11.530;2023-08-30T13:38:49;94780.22;;;20.51;72.83
56600;BME280;51832;48.152;11.530;2023-08-30T13:43:50;94780.66;;;20.17;72.58
56600;BME280;51832;48.152;11.530;2023-08-30T13:48:50;94788.47;;;20.14;71.92
56600;BME280;51832;48.152;11.530;2023-08-30T13:53:51;94791.91;;;20.28;72.54
56600;BME280;51832;48.152;11.530;2023-08-30T13:58:51;94805.66;;;19.67;73.41
56600;BME280;51832;48.152;11.530;2023-08-30T14:03:52;94801.50;;;19.74;73.65
56600;BME280;51832;48.152;11.530;2023-08-30T14:08:52;94803.88;;;19.76;74.11
56600;BME280;51832;48.152;11.530;2023-08-30T14:13:53;94809.41;;;19.66;75.58
56600;BME280;51832;48.152;11.530;2023-08-30T14:18:53;94808.81;;;20.10;75.47
56600;BME280;51832;48.152;11.530;2023-08-30T14:23:54;94802.72;;;20.37;72.40
56600;BME280;51832;48.152;11.530;2023-08-30T14:28:54;94801.16;;;21.44;71.15
56600;BME280;51832;48.152;11.530;2023-08-30T14:33:55;94803.38;;;21.73;65.92
56600;BME280;51832;48.152;11.530;2023-08-30T14:38:57;94800.41;;;21.83;61.22
56600;BME280;51832;48.152;11.530;2023-08-30T14:43:58;94805.16;;;21.86;61.76
56600;BME280;51832;48.152;11.530;2023-08-30T14:48:58;94811.53;;;22.38;61.06
56600;BME280;51832;48.152;11.530;2023-08-30T14:53:59;94803.81;;;22.37;59.93
56600;BME280;51832;48.152;11.530;2023-08-30T14:59:00;94797.34;;;22.46;59.10
56600;BME280;51832;48.152;11.530;2023-08-30T15:04:00;94804.00;;;22.49;58.31
56600;BME280;51832;48.152;11.530;2023-08-30T15:09:00;94803.44;;;22.21;59.85
56600;BME280;51832;48.152;11.530;2023-08-30T15:14:03;94797.91;;;22.83;58.58
56600;BME280;51832;48.152;11.530;2023-08-30T15:19:03;94793.50;;;22.78;59.36
56600;BME280;51832;48.152;11.530;2023-08-30T15:24:04;94795.19;;;23.78;56.73
56600;BME280;51832;48.152;11.530;2023-08-30T15:29:05;94798.31;;;23.88;56.56
56600;BME280;51832;48.152;11.530;2023-08-30T15:34:05;94804.75;;;24.42;55.69
56600;BME280;51832;48.152;11.530;2023-08-30T15:39:06;94801.13;;;24.97;48.95
56600;BME280;51832;48.152;11.530;2023-08-30T15:44:09;94801.13;;;24.89;49.90
56600;BME280;51832;48.152;11.530;2023-08-30T15:49:27;94793.41;;;23.90;51.19
56600;BME280;51832;48.152;11.530;2023-08-30T15:54:28;94805.19;;;23.25;54.09
56600;BME280;51832;48.152;11.530;2023-08-30T15:59:28;94800.78;;;22.95;56.39
56600;BME280;51832;48.152;11.530;2023-08-30T16:04:29;94808.03;;;22.29;58.84
56600;BME280;51832;48.152;11.530;2023-08-30T16:09:29;94803.28;;;21.86;60.44
56600;BME280;51832;48.152;11.530;2023-08-30T16:14:29;94804.81;;;21.79;60.54
56600;BME280;51832;48.152;11.530;2023-08-30T16:19:30;94800.31;;;21.96;60.16
56600;BME280;51832;48.152;11.530;2023-08-30T16:24:31;94797.75;;;21.60;61.40
56600;BME280;51832;48.152;11.530;2023-08-30T16:29:32;94800.97;;;21.40;61.93
56600;BME280;51832;48.152;11.530;2023-08-30T16:34:33;94806.63;;;21.39;64.80
56600;BME280;51832;48.152;11.530;2023-08-30T16:39:33;94819.34;;;21.55;63.93
56600;BME280;51832;48.152;11.530;2023-08-30T16:44:33;94819.25;;;21.69;64.65
56600;BME280;51832;48.152;11.530;2023-08-30T16:49:34;94820.38;;;21.99;62.92
56600;BME280;51832;48.152;11.530;2023-08-30T16:54:34;94818.28;;;21.65;63.61
56600;BME280;51832;48.152;11.530;2023-08-30T16:59:36;94826.75;;;22.20;62.48
56600;BME280;51832;48.152;11.530;2023-08-30T17:04:36;94821.28;;;23.51;58.34
56600;BME280;51832;48.152;11.530;2023-08-30T17:09:37;94836.13;;;24.21;55.57
56600;BME280;51832;48.152;11.530;2023-08-30T17:14:38;94829.47;;;24.65;54.54
56600;BME280;51832;48.152;11.530;2023-08-30T17:19:39;94817.81;;;24.82;53.59
56600;BME280;51832;48.152;11.530;2023-08-30T17:24:39;94833.69;;;24.46;52.76
56600;BME280;51832;48.152;11.530;2023-08-30T17:29:40;94836.63;;;24.23;54.47
56600;BME280;51832;48.152;11.530;2023-08-30T17:34:40;94839.13;;;23.30;56.02
56600;BME280;51832;48.152;11.530;2023-08-30T17:39:41;94831.78;;;22.70;57.54
56600;BME280;51832;48.152;11.530;2023-08-30T17:44:41;94828.44;;;22.08;60.98
56600;BME280;51832;48.152;11.530;2023-08-30T17:49:43;94825.13;;;21.80;62.39
56600;BME280;51832;48.152;11.530;2023-08-30T17:54:44;94841.94;;;21.49;63.33
56600;BME280;51832;48.152;11.530;2023-08-30T17:59:44;94838.09;;;21.19;65.10
56600;BME280;51832;48.152;11.530;2023-08-30T18:04:44;94835.53;;;21.14;67.66
56600;BME280;51832;48.152;11.530;2023-08-30T18:09:45;94853.38;;;21.05;71.55
56600;BME280;51832;48.152;11.530;2023-08-30T18:14:45;94854.06;;;21.11;72.02
56600;BME280;51832;48.152;11.530;2023-08-30T18:19:47;94867.22;;;20.85;73.98
56600;BME280;51832;48.152;11.530;2023-08-30T18:24:49;94864.97;;;20.51;75.62
56600;BME280;51832;48.152;11.530;2023-08-30T18:29:50;94869.63;;;20.59;76.13
56600;BME280;51832;48.152;11.530;2023-08-30T18:34:51;94871.09;;;20.51;76.59
56600;BME280;51832;48.152;11.530;2023-08-30T18:39:51;94865.66;;;20.43;77.56
56600;BME280;51832;48.152;11.530;2023-08-30T18:44:52;94870.78;;;20.26;78.20
56600;BME280;51832;48.152;11.530;2023-08-30T18:49:53;94875.81;;;20.13;79.33
56600;BME280;51832;48.152;11.530;2023-08-30T18:54:53;94880.03;;;19.87;81.26
56600;BME280;51832;48.152;11.530;2023-08-30T18:59:54;94897.63;;;19.88;81.04
56600;BME280;51832;48.152;11.530;2023-08-30T19:04:54;94893.91;;;19.70;82.47
56600;BME280;51832;48.152;11.530;2023-08-30T19:09:55;94904.19;;;19.63;83.52
56600;BME280;51832;48.152;11.530;2023-08-30T19:14:55;94907.13;;;19.62;84.71
56600;BME280;51832;48.152;11.530;2023-08-30T19:19:56;94910.53;;;19.30;86.80
56600;BME280;51832;48.152;11.530;2023-08-30T19:24:56;94909.94;;;19.33;87.25
56600;BME280;51832;48.152;11.530;2023-08-30T19:29:57;94914.47;;;19.13;88.41
56600;BME280;51832;48.152;11.530;2023-08-30T19:34:58;94912.28;;;18.78;89.63
56600;BME280;51832;48.152;11.530;2023-08-30T19:39:58;94912.34;;;18.73;90.86
56600;BME280;51832;48.152;11.530;2023-08-30T19:45:05;94917.28;;;18.61;91.42
56600;BME280;51832;48.152;11.530;2023-08-30T19:50:06;94919.56;;;18.72;91.16
56600;BME280;51832;48.152;11.530;2023-08-30T19:55:07;94921.56;;;18.33;91.07
56600;BME280;51832;48.152;11.530;2023-08-30T20:00:07;94915.41;;;18.37;89.69
56600;BME280;51832;48.152;11.530;2023-08-30T20:05:09;94925.78;;;18.15;91.29
56600;BME280;51832;48.152;11.530;2023-08-30T20:10:11;94911.72;;;18.09;91.24
56600;BME280;51832;48.152;11.530;2023-08-30T20:15:11;94920.91;;;17.93;92.54
56600;BME280;51832;48.152;11.530;2023-08-30T20:20:12;94915.38;;;17.90;92.60
56600;BME280;51832;48.152;11.530;2023-08-30T20:25:12;94918.09;;;17.80;93.73
56600;BME280;51832;48.152;11.530;2023-08-30T20:30:14;94918.69;;;17.77;93.82
56600;BME280;51832;48.152;11.530;2023-08-30T20:35:15;94918.50;;;17.63;95.40
56600;BME280;51832;48.152;11.530;2023-08-30T20:40:15;94912.59;;;17.32;96.94
56600;BME280;51832;48.152;11.530;2023-08-30T20:45:16;94912.00;;;17.40;96.66
56600;BME280;51832;48.152;11.530;2023-08-30T20:50:16;94921.47;;;17.56;96.55
56600;BME280;51832;48.152;11.530;2023-08-30T20:55:17;94912.94;;;17.59;96.85
56600;BME280;51832;48.152;11.530;2023-08-30T21:00:17;94913.47;;;17.56;98.23
56600;BME280;51832;48.152;11.530;2023-08-30T21:05:18;94912.41;;;17.57;98.86
56600;BME280;51832;48.152;11.530;2023-08-30T21:10:18;94912.63;;;17.27;100.00
56600;BME280;51832;48.152;11.530;2023-08-30T21:15:18;94913.84;;;17.45;99.64
56600;BME280;51832;48.152;11.530;2023-08-30T21:20:19;94914.75;;;17.25;100.00
56600;BME280;51832;48.152;11.530;2023-08-30T21:25:22;94915.72;;;17.44;99.18
56600;BME280;51832;48.152;11.530;2023-08-30T21:30:22;94901.00;;;17.18;100.00
56600;BME280;51832;48.152;11.530;2023-08-30T21:35:23;94909.69;;;17.28;99.33
56600;BME280;51832;48.152;11.530;2023-08-30T21:40:23;94927.00;;;17.26;99.19
56600;BME280;51832;48.152;11.530;2023-08-30T21:45:24;94907.91;;;17.19;98.37
56600;BME280;51832;48.152;11.530;2023-08-30T21:50:24;94907.31;;;17.27;97.13
56600;BME280;51832;48.152;11.530;2023-08-30T21:55:24;94902.34;;;17.15;97.17
56600;BME280;51832;48.152;11.530;2023-08-30T22:00:25;94903.44;;;17.09;96.58
56600;BME280;51832;48.152;11.530;2023-08-30T22:05:25;94907.69;;;17.10;95.28
56600;BME280;51832;48.152;11.530;2023-08-30T22:10:26;94911.91;;;17.11;95.43
56600;BME280;51832;48.152;11.530;2023-08-30T22:15:26;94918.88;;;17.07;96.08
56600;BME280;51832;48.152;11.530;2023-08-30T22:20:27;94926.97;;;17.31;94.23
56600;BME280;51832;48.152;11.530;2023-08-30T22:25:27;94931.59;;;17.10;94.35
56600;BME280;51832;48.152;11.530;2023-08-30T22:30:28;94930.88;;;16.99;94.19
56600;BME280;51832;48.152;11.530;2023-08-30T22:35:28;94928.38;;;17.18;93.16
56600;BME280;51832;48.152;11.530;2023-08-30T22:40:29;94930.78;;;17.15;93.08
56600;BME280;51832;48.152;11.530;2023-08-30T22:45:30;94930.88;;;16.99;93.87
56600;BME280;51832;48.152;11.530;2023-08-30T22:50:31;94924.69;;;17.09;92.62
56600;BME280;51832;48.152;11.530;2023-08-30T22:55:31;94928.19;;;17.04;92.69
56600;BME280;51832;48.152;11.530;2023-08-30T23:00:31;94927.19;;;16.90;92.36
56600;BME280;51832;48.152;11.530;2023-08-30T23:05:32;94932.28;;;16.82;92.51
56600;BME280;51832;48.152;11.530;2023-08-30T23:10:33;94917.06;;;16.97;91.62
56600;BME280;51832;48.152;11.530;2023-08-30T23:15:34;94920.31;;;16.84;91.57
56600;BME280;51832;48.152;11.530;2023-08-30T23:20:35;94926.06;;;17.01;91.31
56600;BME280;51832;48.152;11.530;2023-08-30T23:25:39;94933.59;;;16.89;91.76
56600;BME280;51832;48.152;11.530;2023-08-30T23:30:39;94933.59;;;16.84;91.76
56600;BME280;51832;48.152;11.530;2023-08-30T23:35:40;94944.00;;;16.81;91.98
56600;BME280;51832;48.152;11.530;2023-08-30T23:40:40;94939.66;;;16.95;91.74
56600;BME280;51832;48.152;11.530;2023-08-30T23:45:41;94933.16;;;16.67;91.62
56600;BME280;51832;48.152;11.530;2023-08-30T23:50:41;94951.22;;;16.65;91.90
56600;BME280;51832;48.152;11.530;2023-08-30T23:55:48;94945.41;;;16.43;93.06
